Big Rapids, Michigan
Current Conditions -  °F | °C
As of 3:14 PM on Thursday 23 Oct 2014 (Local Time) from KRQB Reporting Station
Clear Clear  
Wind Chill: 55°   Ceiling: Unl
Heat Index: 55°   Visibility: 10mi
Dew Point: 44°   Wind: 5mph
Humidity: 65%   Direction: 230°SW
Pressure: 30.14"   Gusts: NA
Location:  43.7°N, 85.48°W
Report Text: KRQB 231914Z AUTO 23004KT 10SM CLR 13/07 A3014 RMK AO2 T01290065
Loading
Personal Weather Stations






























Interactive Weather Map
Tropical Storm Tracking
New forecast layout! Learn more

10-Day Weather Forecast

Advertisements
Track Severe Weather on mobile